Time,TemperatureF,DewpointF,PressureIn,WindDirection,WindDirectionDegrees,WindSpeedMPH,WindSpeedGustMPH,Humidity,HourlyPrecipIn,Conditions,Clouds,dailyrainin,SolarRadiationWatts/m^2,SoftwareType,DateUTC
2013-06-13 00:01:00,76.4,73.9,30.05,West,267,0.0,0.0,92,0.00,CLR,,0.00,0.0,WeatherDisplay:10.37,2013-06-13 04:01:00,
2013-06-13 00:06:00,76.5,74.0,30.05,West,267,0.0,0.0,92,0.00,CLR,,0.00,0.0,WeatherDisplay:10.37,2013-06-13 04:06:00,
2013-06-13 00:11:00,76.4,73.9,30.05,West,267,0.0,0.0,92,0.00,CLR,,0.00,0.0,WeatherDisplay:10.37,2013-06-13 04:11:00,
2013-06-13 00:16:00,76.3,73.8,30.05,West,267,0.0,0.0,92,0.00,CLR,,0.00,0.0,WeatherDisplay:10.37,2013-06-13 04:16:00,
2013-06-13 00:21:00,76.2,73.7,30.05,West,267,0.0,0.0,92,0.00,CLR,,0.00,0.0,WeatherDisplay:10.37,2013-06-13 04:21:00,
2013-06-13 00:26:00,76.2,73.7,30.05,West,267,0.0,0.0,92,0.00,CLR,,0.00,0.0,WeatherDisplay:10.37,2013-06-13 04:26:00,
2013-06-13 00:31:00,76.2,73.7,30.05,West,267,0.0,0.0,92,0.00,CLR,,0.00,0.0,WeatherDisplay:10.37,2013-06-13 04:31:00,
2013-06-13 00:36:00,76.1,73.6,30.05,West,267,0.0,0.0,92,0.00,CLR,,0.00,0.0,WeatherDisplay:10.37,2013-06-13 04:36:00,
2013-06-13 00:41:00,76.0,73.5,30.04,West,267,0.0,0.0,92,0.00,CLR,,0.00,0.0,WeatherDisplay:10.37,2013-06-13 04:41:00,
2013-06-13 00:46:00,75.9,73.4,30.04,West,267,0.0,0.0,92,0.00,CLR,,0.00,0.0,WeatherDisplay:10.37,2013-06-13 04:46:00,
2013-06-13 00:51:00,75.8,73.3,30.04,West,267,0.0,0.0,92,0.00,CLR,,0.00,0.0,WeatherDisplay:10.37,2013-06-13 04:51:00,
2013-06-13 00:56:00,75.8,73.6,30.04,West,267,0.0,0.0,93,0.00,CLR,,0.00,0.0,WeatherDisplay:10.37,2013-06-13 04:56:00,
2013-06-13 01:01:00,75.7,73.5,30.04,West,267,0.0,0.0,93,0.00,CLR,,0.00,0.0,WeatherDisplay:10.37,2013-06-13 05:01:00,
2013-06-13 01:06:00,75.7,73.5,30.04,West,267,0.0,0.0,93,0.00,CLR,,0.00,0.0,WeatherDisplay:10.37,2013-06-13 05:06:00,
2013-06-13 01:11:00,75.6,73.4,30.03,West,267,0.0,0.0,93,0.00,CLR,,0.00,0.0,WeatherDisplay:10.37,2013-06-13 05:11:00,
2013-06-13 01:16:00,75.6,73.4,30.03,West,267,0.0,0.0,93,0.00,CLR,,0.00,0.0,WeatherDisplay:10.37,2013-06-13 05:16:00,
2013-06-13 01:21:00,75.5,73.3,30.04,West,267,0.0,0.0,93,0.00,CLR,,0.00,0.0,WeatherDisplay:10.37,2013-06-13 05:21:00,
2013-06-13 01:26:00,75.4,73.2,30.03,West,267,0.0,0.0,93,0.00,CLR,,0.00,0.0,WeatherDisplay:10.37,2013-06-13 05:26:00,
2013-06-13 01:31:00,75.3,73.1,30.03,West,267,0.0,0.0,93,0.00,CLR,,0.00,0.0,WeatherDisplay:10.37,2013-06-13 05:31:00,
2013-06-13 01:36:00,75.3,73.1,30.03,West,267,0.0,0.0,93,0.00,CLR,,0.00,0.0,WeatherDisplay:10.37,2013-06-13 05:36:00,
2013-06-13 01:41:00,75.2,73.4,30.03,West,267,0.0,0.0,94,0.00,CLR,,0.00,0.0,WeatherDisplay:10.37,2013-06-13 05:41:00,
2013-06-13 01:46:00,75.2,73.4,30.03,West,267,0.0,0.0,94,0.00,CLR,,0.00,0.0,WeatherDisplay:10.37,2013-06-13 05:46:00,
2013-06-13 01:51:00,75.2,73.4,30.03,West,267,0.0,0.0,94,0.00,CLR,,0.00,0.0,WeatherDisplay:10.37,2013-06-13 05:51:00,
2013-06-13 01:56:00,75.2,73.4,30.03,West,267,0.0,0.0,94,0.00,CLR,,0.00,0.0,WeatherDisplay:10.37,2013-06-13 05:56:00,
2013-06-13 02:01:00,75.1,73.3,30.03,West,267,0.0,0.0,94,0.00,CLR,,0.00,0.0,WeatherDisplay:10.37,2013-06-13 06:01:00,
2013-06-13 02:06:00,75.1,73.3,30.03,West,267,0.0,0.0,94,0.00,CLR,,0.00,0.0,WeatherDisplay:10.37,2013-06-13 06:06:00,
2013-06-13 02:11:00,75.1,73.3,30.02,West,267,0.0,0.0,94,0.00,CLR,,0.00,0.0,WeatherDisplay:10.37,2013-06-13 06:11:00,
2013-06-13 02:16:00,75.0,73.5,30.02,West,267,0.0,0.0,95,0.00,CLR,,0.00,0.0,WeatherDisplay:10.37,2013-06-13 06:16:00,
2013-06-13 02:21:00,75.0,73.5,30.02,West,267,0.0,0.0,95,0.00,CLR,,0.00,0.0,WeatherDisplay:10.37,2013-06-13 06:21:00,
2013-06-13 02:26:00,75.0,73.5,30.02,West,267,0.0,0.0,95,0.00,CLR,,0.00,0.0,WeatherDisplay:10.37,2013-06-13 06:26:00,
2013-06-13 02:31:00,75.0,73.2,30.02,West,267,0.0,0.0,94,0.00,CLR,,0.00,0.0,WeatherDisplay:10.37,2013-06-13 06:31:00,
2013-06-13 02:36:00,74.9,73.1,30.02,West,267,0.0,0.0,94,0.00,CLR,,0.00,0.0,WeatherDisplay:10.37,2013-06-13 06:36:00,
2013-06-13 02:41:00,74.9,73.4,30.02,West,267,0.0,0.0,95,0.00,CLR,,0.00,0.0,WeatherDisplay:10.37,2013-06-13 06:41:00,
2013-06-13 02:46:00,75.0,73.5,30.02,West,267,0.0,0.0,95,0.00,CLR,,0.00,0.0,WeatherDisplay:10.37,2013-06-13 06:46:00,
2013-06-13 02:51:00,74.9,73.1,30.02,West,267,0.0,0.0,94,0.00,CLR,,0.00,0.0,WeatherDisplay:10.37,2013-06-13 06:51:00,
2013-06-13 02:56:00,74.8,73.0,30.01,West,267,0.0,0.0,94,0.00,CLR,,0.00,0.0,WeatherDisplay:10.37,2013-06-13 06:56:00,
2013-06-13 03:01:00,74.7,72.9,30.01,West,267,0.0,0.0,94,0.00,CLR,,0.00,0.0,WeatherDisplay:10.37,2013-06-13 07:01:00,
2013-06-13 03:06:00,74.6,72.8,30.01,West,267,0.0,0.0,94,0.00,CLR,,0.00,0.0,WeatherDisplay:10.37,2013-06-13 07:06:00,
2013-06-13 03:11:00,74.5,73.0,30.02,West,267,0.0,0.0,95,0.00,CLR,,0.00,0.0,WeatherDisplay:10.37,2013-06-13 07:11:00,
2013-06-13 03:16:00,74.6,73.1,30.01,West,267,0.0,0.0,95,0.00,CLR,,0.00,0.0,WeatherDisplay:10.37,2013-06-13 07:16:00,
2013-06-13 04:01:00,74.6,73.4,30.01,West,268,0.0,0.0,96,0.00,CLR,CLR,0.00,0.0,WeatherDisplay:10.37,2013-06-13 08:01:00,
2013-06-13 04:06:00,74.6,73.4,30.01,West,269,0.0,0.0,96,0.00,CLR,CLR,0.00,0.0,WeatherDisplay:10.37,2013-06-13 08:06:00,
2013-06-13 04:11:00,74.6,73.4,30.01,West,270,0.0,0.0,96,0.00,CLR,CLR,0.00,0.0,WeatherDisplay:10.37,2013-06-13 08:11:00,
2013-06-13 04:16:00,74.6,73.4,30.01,West,270,0.0,0.0,96,0.00,CLR,CLR,0.00,0.0,WeatherDisplay:10.37,2013-06-13 08:16:00,
2013-06-13 04:21:00,74.6,73.4,30.01,West,270,0.0,0.0,96,0.00,CLR,CLR,0.00,0.0,WeatherDisplay:10.37,2013-06-13 08:21:00,
2013-06-13 04:26:00,74.6,73.4,30.01,West,270,0.0,0.0,96,0.00,CLR,CLR,0.00,0.0,WeatherDisplay:10.37,2013-06-13 08:26:00,
2013-06-13 04:31:00,74.5,73.3,30.01,West,270,0.0,0.0,96,0.00,CLR,CLR,0.00,0.0,WeatherDisplay:10.37,2013-06-13 08:31:00,
2013-06-13 04:36:00,74.5,73.3,30.01,West,270,0.0,0.0,96,0.00,CLR,CLR,0.00,0.0,WeatherDisplay:10.37,2013-06-13 08:36:00,
2013-06-13 04:41:00,74.5,73.3,30.01,West,270,0.0,0.0,96,0.00,CLR,CLR,0.00,0.0,WeatherDisplay:10.37,2013-06-13 08:41:00,
2013-06-13 04:46:00,74.5,73.3,30.01,West,270,0.0,0.0,96,0.00,CLR,CLR,0.00,0.0,WeatherDisplay:10.37,2013-06-13 08:46:00,
2013-06-13 04:51:00,74.5,73.3,30.01,West,270,0.0,0.0,96,0.00,CLR,CLR,0.00,0.0,WeatherDisplay:10.37,2013-06-13 08:51:00,
2013-06-13 04:56:00,74.5,73.3,30.01,West,270,0.0,0.0,96,0.00,CLR,CLR,0.00,0.0,WeatherDisplay:10.37,2013-06-13 08:56:00,
2013-06-13 05:01:00,75.0,74.1,30.01,West,270,0.0,0.0,97,0.00,CLR,CLR,0.00,0.0,WeatherDisplay:10.37,2013-06-13 09:01:00,
2013-06-13 05:06:00,75.0,74.1,30.01,West,270,0.0,0.0,97,0.00,CLR,CLR,0.00,0.0,WeatherDisplay:10.37,2013-06-13 09:06:00,
2013-06-13 05:11:00,75.0,74.1,30.01,West,270,0.0,0.0,97,0.00,CLR,CLR,0.00,0.0,WeatherDisplay:10.37,2013-06-13 09:11:00,
2013-06-13 05:16:00,75.0,74.1,30.01,West,270,0.0,0.0,97,0.00,CLR,CLR,0.00,0.0,WeatherDisplay:10.37,2013-06-13 09:16:00,
2013-06-13 05:21:00,75.0,74.1,30.01,West,270,0.0,0.0,97,0.00,CLR,CLR,0.00,0.0,WeatherDisplay:10.37,2013-06-13 09:21:00,
2013-06-13 05:26:00,75.0,74.1,30.01,West,270,0.0,0.0,97,0.00,CLR,CLR,0.00,0.0,WeatherDisplay:10.37,2013-06-13 09:26:00,
2013-06-13 05:31:00,75.5,74.3,30.01,West,270,0.0,0.0,96,0.00,CLR,CLR,0.00,0.0,WeatherDisplay:10.37,2013-06-13 09:31:00,
2013-06-13 05:36:00,75.5,74.3,30.01,West,270,0.0,0.0,96,0.00,CLR,CLR,0.00,0.0,WeatherDisplay:10.37,2013-06-13 09:36:00,
2013-06-13 05:41:00,75.5,74.3,30.01,West,270,0.0,0.0,96,0.00,CLR,CLR,0.00,0.0,WeatherDisplay:10.37,2013-06-13 09:41:00,
2013-06-13 05:46:00,75.5,74.3,30.01,West,270,0.0,0.0,96,0.00,CLR,CLR,0.00,0.0,WeatherDisplay:10.37,2013-06-13 09:46:00,
2013-06-13 05:51:00,75.5,74.3,30.01,West,270,0.0,0.0,96,0.00,CLR,CLR,0.00,0.0,WeatherDisplay:10.37,2013-06-13 09:51:00,
2013-06-13 05:56:00,75.5,74.3,30.01,West,270,0.0,0.0,96,0.00,CLR,CLR,0.00,0.0,WeatherDisplay:10.37,2013-06-13 09:56:00,
2013-06-13 06:01:00,75.3,74.1,30.00,West,270,0.0,0.0,96,0.00,CLR,CLR,0.00,0.0,WeatherDisplay:10.37,2013-06-13 10:01:00,
2013-06-13 06:06:00,75.3,74.1,30.00,West,270,0.0,0.0,96,0.00,CLR,CLR,0.00,0.0,WeatherDisplay:10.37,2013-06-13 10:06:00,
2013-06-13 06:11:00,75.3,74.1,30.00,West,270,0.0,0.0,96,0.00,CLR,CLR,0.00,0.0,WeatherDisplay:10.37,2013-06-13 10:11:00,
2013-06-13 06:16:00,75.3,74.1,30.00,West,270,0.0,0.0,96,0.00,CLR,CLR,0.00,0.0,WeatherDisplay:10.37,2013-06-13 10:16:00,
2013-06-13 06:21:00,75.3,74.1,30.00,West,270,0.0,0.0,96,0.00,CLR,CLR,0.00,0.0,WeatherDisplay:10.37,2013-06-13 10:21:00,
2013-06-13 06:26:00,75.3,74.1,30.00,West,270,0.0,0.0,96,0.00,CLR,CLR,0.00,0.0,WeatherDisplay:10.37,2013-06-13 10:26:00,
2013-06-13 06:31:00,75.5,74.6,30.01,West,270,0.0,3.0,97,0.00,CLR,CLR,0.00,0.0,WeatherDisplay:10.37,2013-06-13 10:31:00,
2013-06-13 06:36:00,75.5,74.6,30.01,West,270,0.0,3.0,97,0.00,CLR,CLR,0.00,0.0,WeatherDisplay:10.37,2013-06-13 10:36:00,
2013-06-13 06:41:00,75.5,74.6,30.01,West,270,0.0,3.0,97,0.00,CLR,CLR,0.00,0.0,WeatherDisplay:10.37,2013-06-13 10:41:00,
2013-06-13 06:46:00,75.5,74.6,30.01,West,270,0.0,3.0,97,0.00,CLR,CLR,0.00,0.0,WeatherDisplay:10.37,2013-06-13 10:46:00,
2013-06-13 06:51:00,75.5,74.6,30.01,West,270,0.0,3.0,97,0.00,CLR,CLR,0.00,0.0,WeatherDisplay:10.37,2013-06-13 10:51:00,
2013-06-13 06:56:00,75.5,74.6,30.01,West,270,0.0,3.0,97,0.00,CLR,CLR,0.00,0.0,WeatherDisplay:10.37,2013-06-13 10:56:00,
2013-06-13 07:01:00,75.7,74.8,30.02,West,270,0.0,3.0,97,0.00,CLR,CLR,0.00,9.0,WeatherDisplay:10.37,2013-06-13 11:01:00,
2013-06-13 07:06:00,75.7,74.8,30.02,West,270,0.0,0.0,97,0.00,CLR,CLR,0.00,9.0,WeatherDisplay:10.37,2013-06-13 11:06:00,
2013-06-13 07:11:00,75.7,74.8,30.02,West,270,0.0,0.0,97,0.00,CLR,CLR,0.00,9.0,WeatherDisplay:10.37,2013-06-13 11:11:00,
2013-06-13 07:16:00,75.7,74.8,30.02,West,270,0.0,0.0,97,0.00,CLR,CLR,0.00,9.0,WeatherDisplay:10.37,2013-06-13 11:16:00,
2013-06-13 07:21:00,75.7,74.8,30.02,West,270,0.0,0.0,97,0.00,CLR,CLR,0.00,9.0,WeatherDisplay:10.37,2013-06-13 11:21:00,
2013-06-13 07:26:00,75.7,74.8,30.02,West,270,0.0,0.0,97,0.00,CLR,CLR,0.00,9.0,WeatherDisplay:10.37,2013-06-13 11:26:00,
2013-06-13 07:31:00,75.8,74.9,30.02,West,270,0.0,1.0,97,0.00,CLR,CLR,0.00,33.0,WeatherDisplay:10.37,2013-06-13 11:31:00,
2013-06-13 07:36:00,75.8,74.9,30.02,West,270,0.0,1.0,97,0.00,CLR,CLR,0.00,33.0,WeatherDisplay:10.37,2013-06-13 11:36:00,
2013-06-13 07:41:00,75.8,74.9,30.02,West,270,0.0,1.0,97,0.00,CLR,CLR,0.00,33.0,WeatherDisplay:10.37,2013-06-13 11:41:00,
2013-06-13 07:46:00,75.8,74.9,30.02,West,270,0.0,1.0,97,0.00,CLR,CLR,0.00,33.0,WeatherDisplay:10.37,2013-06-13 11:46:00,
2013-06-13 07:51:00,75.8,74.9,30.02,West,270,0.0,1.0,97,0.00,CLR,CLR,0.00,33.0,WeatherDisplay:10.37,2013-06-13 11:51:00,
2013-06-13 07:56:00,75.8,74.9,30.02,West,270,0.0,1.0,97,0.00,CLR,CLR,0.00,33.0,WeatherDisplay:10.37,2013-06-13 11:56:00,
2013-06-13 08:01:00,76.8,75.9,30.02,West,270,0.0,3.0,97,0.00,OVC,OVC,0.00,109.0,WeatherDisplay:10.37,2013-06-13 12:01:00,
2013-06-13 08:06:00,76.8,75.9,30.02,West,270,0.0,3.0,97,0.00,OVC,OVC,0.00,109.0,WeatherDisplay:10.37,2013-06-13 12:06:00,
2013-06-13 08:11:00,76.8,75.9,30.02,West,270,0.0,3.0,97,0.00,OVC,OVC,0.00,109.0,WeatherDisplay:10.37,2013-06-13 12:11:00,
2013-06-13 08:16:00,76.8,75.9,30.02,West,270,0.0,3.0,97,0.00,OVC,OVC,0.00,109.0,WeatherDisplay:10.37,2013-06-13 12:16:00,
2013-06-13 08:21:00,76.8,75.9,30.02,West,270,0.0,3.0,97,0.00,OVC,OVC,0.00,109.0,WeatherDisplay:10.37,2013-06-13 12:21:00,
2013-06-13 08:26:00,76.8,75.9,30.02,West,270,0.0,3.0,97,0.00,OVC,OVC,0.00,109.0,WeatherDisplay:10.37,2013-06-13 12:26:00,
2013-06-13 08:31:00,78.6,77.0,30.04,West,270,0.0,6.0,95,0.00,OVC,OVC,0.00,256.0,WeatherDisplay:10.37,2013-06-13 12:31:00,
2013-06-13 08:36:00,78.6,77.0,30.04,West,270,0.0,6.0,95,0.00,OVC,OVC,0.00,256.0,WeatherDisplay:10.37,2013-06-13 12:36:00,
2013-06-13 08:41:00,78.6,77.0,30.04,West,270,0.0,6.0,95,0.00,OVC,OVC,0.00,256.0,WeatherDisplay:10.37,2013-06-13 12:41:00,
2013-06-13 08:46:00,78.6,77.0,30.04,West,270,0.0,6.0,95,0.00,OVC,OVC,0.00,256.0,WeatherDisplay:10.37,2013-06-13 12:46:00,
2013-06-13 08:51:00,78.6,77.0,30.04,West,270,0.0,6.0,95,0.00,OVC,OVC,0.00,256.0,WeatherDisplay:10.37,2013-06-13 12:51:00,
2013-06-13 08:56:00,78.6,77.0,30.04,West,270,0.0,6.0,95,0.00,OVC,OVC,0.00,256.0,WeatherDisplay:10.37,2013-06-13 12:56:00,
2013-06-13 09:01:00,83.3,77.6,30.05,West,270,0.0,6.0,83,0.00,OVC,OVC,0.00,419.0,WeatherDisplay:10.37,2013-06-13 13:01:00,
2013-06-13 09:06:00,83.3,77.6,30.05,West,270,0.0,4.0,83,0.00,OVC,OVC,0.00,419.0,WeatherDisplay:10.37,2013-06-13 13:06:00,
2013-06-13 09:11:00,83.3,77.6,30.05,West,270,0.0,4.0,83,0.00,OVC,OVC,0.00,419.0,WeatherDisplay:10.37,2013-06-13 13:11:00,
2013-06-13 09:16:00,83.3,77.6,30.05,West,270,0.0,4.0,83,0.00,OVC,OVC,0.00,419.0,WeatherDisplay:10.37,2013-06-13 13:16:00,
2013-06-13 09:21:00,83.3,77.6,30.05,West,270,0.0,4.0,83,0.00,OVC,OVC,0.00,419.0,WeatherDisplay:10.37,2013-06-13 13:21:00,
2013-06-13 09:26:00,83.3,77.6,30.05,West,270,0.0,4.0,83,0.00,OVC,OVC,0.00,419.0,WeatherDisplay:10.37,2013-06-13 13:26:00,
2013-06-13 09:31:00,87.0,78.5,30.05,West,270,0.0,4.0,76,0.00,OVC,OVC,0.00,550.0,WeatherDisplay:10.37,2013-06-13 13:31:00,
2013-06-13 09:36:00,87.0,78.5,30.05,West,270,0.0,4.0,76,0.00,OVC,OVC,0.00,550.0,WeatherDisplay:10.37,2013-06-13 13:36:00,
2013-06-13 09:41:00,87.0,78.5,30.05,West,270,0.0,4.0,76,0.00,OVC,OVC,0.00,550.0,WeatherDisplay:10.37,2013-06-13 13:41:00,
2013-06-13 09:46:00,87.0,78.5,30.05,West,270,0.0,4.0,76,0.00,OVC,OVC,0.00,550.0,WeatherDisplay:10.37,2013-06-13 13:46:00,
2013-06-13 09:51:00,87.0,78.5,30.05,West,270,0.0,4.0,76,0.00,OVC,OVC,0.00,550.0,WeatherDisplay:10.37,2013-06-13 13:51:00,
2013-06-13 09:56:00,87.0,78.5,30.05,West,270,0.0,4.0,76,0.00,OVC,OVC,0.00,550.0,WeatherDisplay:10.37,2013-06-13 13:56:00,
2013-06-13 10:01:00,88.0,76.5,30.06,West,270,0.0,4.0,69,0.00,OVC,OVC,0.00,458.0,WeatherDisplay:10.37,2013-06-13 14:01:00,
2013-06-13 10:06:00,88.0,76.5,30.06,West,270,0.0,4.0,69,0.00,OVC,OVC,0.00,458.0,WeatherDisplay:10.37,2013-06-13 14:06:00,
2013-06-13 10:11:00,88.0,76.5,30.06,West,270,0.0,4.0,69,0.00,OVC,OVC,0.00,458.0,WeatherDisplay:10.37,2013-06-13 14:11:00,
2013-06-13 10:16:00,88.0,76.5,30.06,West,270,0.0,4.0,69,0.00,OVC,OVC,0.00,458.0,WeatherDisplay:10.37,2013-06-13 14:16:00,
2013-06-13 10:21:00,88.0,76.5,30.06,West,270,0.0,4.0,69,0.00,OVC,OVC,0.00,458.0,WeatherDisplay:10.37,2013-06-13 14:21:00,
2013-06-13 10:26:00,88.0,76.5,30.06,West,270,0.0,4.0,69,0.00,OVC,OVC,0.00,458.0,WeatherDisplay:10.37,2013-06-13 14:26:00,
2013-06-13 10:31:00,88.4,77.4,30.06,West,270,0.0,6.0,70,0.00,OVC,OVC,0.00,436.0,WeatherDisplay:10.37,2013-06-13 14:31:00,
2013-06-13 10:36:00,88.4,77.4,30.06,West,270,0.0,6.0,70,0.00,OVC,OVC,0.00,436.0,WeatherDisplay:10.37,2013-06-13 14:36:00,
2013-06-13 10:41:00,88.4,77.4,30.06,West,270,0.0,6.0,70,0.00,OVC,OVC,0.00,436.0,WeatherDisplay:10.37,2013-06-13 14:41:00,
2013-06-13 10:46:00,88.4,77.4,30.06,West,270,0.0,6.0,70,0.00,OVC,OVC,0.00,436.0,WeatherDisplay:10.37,2013-06-13 14:46:00,
2013-06-13 10:51:00,88.4,77.4,30.06,West,270,0.0,6.0,70,0.00,OVC,OVC,0.00,436.0,WeatherDisplay:10.37,2013-06-13 14:51:00,
2013-06-13 10:56:00,88.4,77.4,30.06,West,270,0.0,6.0,70,0.00,OVC,OVC,0.00,436.0,WeatherDisplay:10.37,2013-06-13 14:56:00,
2013-06-13 11:01:00,87.3,77.6,30.06,West,270,0.0,6.0,73,0.00,OVC,OVC,0.00,230.0,WeatherDisplay:10.37,2013-06-13 15:01:00,
2013-06-13 11:06:00,87.3,77.6,30.06,West,270,0.0,3.0,73,0.00,OVC,OVC,0.00,230.0,WeatherDisplay:10.37,2013-06-13 15:06:00,
2013-06-13 11:11:00,87.3,77.6,30.06,West,270,0.0,3.0,73,0.00,OVC,OVC,0.00,230.0,WeatherDisplay:10.37,2013-06-13 15:11:00,
2013-06-13 11:16:00,87.3,77.6,30.06,West,270,0.0,3.0,73,0.00,OVC,OVC,0.00,230.0,WeatherDisplay:10.37,2013-06-13 15:16:00,
2013-06-13 11:21:00,87.3,77.6,30.06,West,270,0.0,3.0,73,0.00,OVC,OVC,0.00,230.0,WeatherDisplay:10.37,2013-06-13 15:21:00,
2013-06-13 11:26:00,87.3,77.6,30.06,West,270,0.0,3.0,73,0.00,OVC,OVC,0.00,230.0,WeatherDisplay:10.37,2013-06-13 15:26:00,
2013-06-13 11:31:00,87.8,77.6,30.05,West,270,0.0,6.0,72,0.00,OVC,OVC,0.00,512.0,WeatherDisplay:10.37,2013-06-13 15:31:00,
2013-06-13 11:36:00,87.8,77.6,30.05,West,270,0.0,6.0,72,0.00,OVC,OVC,0.00,512.0,WeatherDisplay:10.37,2013-06-13 15:36:00,
2013-06-13 11:41:00,87.8,77.6,30.05,West,270,0.0,6.0,72,0.00,OVC,OVC,0.00,512.0,WeatherDisplay:10.37,2013-06-13 15:41:00,
2013-06-13 11:46:00,87.8,77.6,30.05,West,270,0.0,6.0,72,0.00,OVC,OVC,0.00,512.0,WeatherDisplay:10.37,2013-06-13 15:46:00,
2013-06-13 11:51:00,87.8,77.6,30.05,West,270,0.0,6.0,72,0.00,OVC,OVC,0.00,512.0,WeatherDisplay:10.37,2013-06-13 15:51:00,
2013-06-13 11:56:00,87.8,77.6,30.05,West,270,0.0,6.0,72,0.00,OVC,OVC,0.00,512.0,WeatherDisplay:10.37,2013-06-13 15:56:00,
2013-06-13 12:01:00,86.6,77.3,30.05,West,262,3.0,8.0,74,0.00,OVC,OVC,0.00,505.0,WeatherDisplay:10.37,2013-06-13 16:01:00,
2013-06-13 12:06:00,86.6,77.3,30.05,ESE,119,3.0,8.0,74,0.00,OVC,OVC,0.00,505.0,WeatherDisplay:10.37,2013-06-13 16:06:00,
2013-06-13 12:11:00,86.6,77.3,30.05,ESE,112,3.0,8.0,74,0.00,OVC,OVC,0.00,505.0,WeatherDisplay:10.37,2013-06-13 16:11:00,
2013-06-13 12:16:00,86.6,77.3,30.05,ESE,112,3.0,8.0,74,0.00,OVC,OVC,0.00,505.0,WeatherDisplay:10.37,2013-06-13 16:16:00,
2013-06-13 12:21:00,86.6,77.3,30.05,ESE,112,3.0,8.0,74,0.00,OVC,OVC,0.00,505.0,WeatherDisplay:10.37,2013-06-13 16:21:00,
2013-06-13 12:26:00,86.6,77.3,30.05,ESE,112,3.0,8.0,74,0.00,OVC,OVC,0.00,505.0,WeatherDisplay:10.37,2013-06-13 16:26:00,
2013-06-13 12:31:00,86.9,78.0,30.04,ESE,112,3.0,9.0,75,0.00,OVC,OVC,0.00,588.0,WeatherDisplay:10.37,2013-06-13 16:31:00,
2013-06-13 12:36:00,86.9,78.0,30.04,ESE,112,3.0,9.0,75,0.00,OVC,OVC,0.00,588.0,WeatherDisplay:10.37,2013-06-13 16:36:00,
2013-06-13 12:41:00,86.9,78.0,30.04,ESE,112,3.0,9.0,75,0.00,OVC,OVC,0.00,588.0,WeatherDisplay:10.37,2013-06-13 16:41:00,
2013-06-13 12:46:00,86.9,78.0,30.04,ESE,112,3.0,9.0,75,0.00,OVC,OVC,0.00,588.0,WeatherDisplay:10.37,2013-06-13 16:46:00,
2013-06-13 12:51:00,86.9,78.0,30.04,ESE,112,3.0,9.0,75,0.00,OVC,OVC,0.00,588.0,WeatherDisplay:10.37,2013-06-13 16:51:00,
2013-06-13 12:56:00,86.9,78.0,30.04,ESE,112,3.0,9.0,75,0.00,OVC,OVC,0.00,588.0,WeatherDisplay:10.37,2013-06-13 16:56:00,
2013-06-13 13:01:00,87.0,76.5,30.05,ESE,112,3.0,10.0,71,0.00,OVC,OVC,0.00,832.0,WeatherDisplay:10.37,2013-06-13 17:01:00,
2013-06-13 13:06:00,87.0,76.5,30.05,ESE,112,3.0,10.0,71,0.00,OVC,OVC,0.00,832.0,WeatherDisplay:10.37,2013-06-13 17:06:00,
2013-06-13 13:11:00,87.0,76.5,30.05,ESE,112,3.0,10.0,71,0.00,OVC,OVC,0.00,832.0,WeatherDisplay:10.37,2013-06-13 17:11:00,
2013-06-13 13:16:00,87.0,76.5,30.05,ESE,112,3.0,10.0,71,0.00,OVC,OVC,0.00,832.0,WeatherDisplay:10.37,2013-06-13 17:16:00,
2013-06-13 13:21:00,87.0,76.5,30.05,ESE,112,3.0,10.0,71,0.00,OVC,OVC,0.00,832.0,WeatherDisplay:10.37,2013-06-13 17:21:00,
2013-06-13 13:26:00,87.0,76.5,30.05,ESE,112,3.0,10.0,71,0.00,OVC,OVC,0.00,832.0,WeatherDisplay:10.37,2013-06-13 17:26:00,
2013-06-13 13:31:00,85.8,76.5,30.04,ESE,116,3.0,10.0,74,0.00,OVC,OVC,0.00,402.0,WeatherDisplay:10.37,2013-06-13 17:31:00,
2013-06-13 13:36:00,85.8,76.5,30.04,SSE,148,3.0,10.0,74,0.00,OVC,OVC,0.00,402.0,WeatherDisplay:10.37,2013-06-13 17:36:00,
2013-06-13 13:41:00,85.8,76.5,30.04,South,180,3.0,10.0,74,0.00,OVC,OVC,0.00,402.0,WeatherDisplay:10.37,2013-06-13 17:41:00,
2013-06-13 13:46:00,85.8,76.5,30.04,South,180,3.0,10.0,74,0.00,OVC,OVC,0.00,402.0,WeatherDisplay:10.37,2013-06-13 17:46:00,
2013-06-13 13:51:00,85.8,76.5,30.04,South,180,3.0,10.0,74,0.00,OVC,OVC,0.00,402.0,WeatherDisplay:10.37,2013-06-13 17:51:00,
2013-06-13 13:56:00,85.8,76.5,30.04,South,180,3.0,10.0,74,0.00,OVC,OVC,0.00,402.0,WeatherDisplay:10.37,2013-06-13 17:56:00,
2013-06-13 14:01:00,86.7,77.0,30.03,South,180,3.0,11.0,73,0.00,OVC,OVC,0.00,530.0,WeatherDisplay:10.37,2013-06-13 18:01:00,
2013-06-13 14:06:00,86.7,77.0,30.03,South,180,3.0,11.0,73,0.00,OVC,OVC,0.00,530.0,WeatherDisplay:10.37,2013-06-13 18:06:00,
2013-06-13 14:11:00,86.7,77.0,30.03,South,180,3.0,11.0,73,0.00,OVC,OVC,0.00,530.0,WeatherDisplay:10.37,2013-06-13 18:11:00,
2013-06-13 14:16:00,86.7,77.0,30.03,South,180,3.0,11.0,73,0.00,OVC,OVC,0.00,530.0,WeatherDisplay:10.37,2013-06-13 18:16:00,
2013-06-13 14:21:00,86.7,77.0,30.03,South,180,3.0,11.0,73,0.00,OVC,OVC,0.00,530.0,WeatherDisplay:10.37,2013-06-13 18:21:00,
2013-06-13 14:26:00,86.7,77.0,30.03,South,180,3.0,11.0,73,0.00,OVC,OVC,0.00,530.0,WeatherDisplay:10.37,2013-06-13 18:26:00,
2013-06-13 14:31:00,87.4,76.0,30.02,South,180,2.0,11.0,69,0.00,OVC,OVC,0.00,524.0,WeatherDisplay:10.37,2013-06-13 18:31:00,
2013-06-13 14:36:00,87.4,76.0,30.02,South,180,2.0,9.0,69,0.00,OVC,OVC,0.00,524.0,WeatherDisplay:10.37,2013-06-13 18:36:00,
2013-06-13 14:41:00,87.4,76.0,30.02,South,180,2.0,9.0,69,0.00,OVC,OVC,0.00,524.0,WeatherDisplay:10.37,2013-06-13 18:41:00,
2013-06-13 14:46:00,87.4,76.0,30.02,South,180,2.0,9.0,69,0.00,OVC,OVC,0.00,524.0,WeatherDisplay:10.37,2013-06-13 18:46:00,
2013-06-13 14:51:00,87.4,76.0,30.02,South,180,2.0,9.0,69,0.00,OVC,OVC,0.00,524.0,WeatherDisplay:10.37,2013-06-13 18:51:00,
2013-06-13 14:56:00,87.4,76.0,30.02,South,180,2.0,9.0,69,0.00,OVC,OVC,0.00,524.0,WeatherDisplay:10.37,2013-06-13 18:56:00,
2013-06-13 15:01:00,85.9,75.4,30.00,South,177,1.0,9.0,71,0.00,OVC,OVC,0.00,231.0,WeatherDisplay:10.37,2013-06-13 19:01:00,
2013-06-13 15:06:00,85.9,75.4,30.00,SSE,152,1.0,8.0,71,0.00,OVC,OVC,0.00,231.0,WeatherDisplay:10.37,2013-06-13 19:06:00,
2013-06-13 15:11:00,85.9,75.4,30.00,ESE,112,1.0,8.0,71,0.00,OVC,OVC,0.00,231.0,WeatherDisplay:10.37,2013-06-13 19:11:00,
2013-06-13 15:16:00,85.9,75.4,30.00,ESE,112,1.0,8.0,71,0.00,OVC,OVC,0.00,231.0,WeatherDisplay:10.37,2013-06-13 19:16:00,
2013-06-13 15:21:00,85.9,75.4,30.00,ESE,112,1.0,8.0,71,0.00,OVC,OVC,0.00,231.0,WeatherDisplay:10.37,2013-06-13 19:21:00,
2013-06-13 15:26:00,85.9,75.4,30.00,ESE,112,1.0,8.0,71,0.00,OVC,OVC,0.00,231.0,WeatherDisplay:10.37,2013-06-13 19:26:00,
2013-06-13 15:31:00,85.4,76.2,29.98,ESE,118,1.0,8.0,74,0.00,OVC,OVC,0.00,238.0,WeatherDisplay:10.37,2013-06-13 19:31:00,
2013-06-13 15:36:00,85.4,76.2,29.98,SSE,168,1.0,8.0,74,0.00,OVC,OVC,0.00,238.0,WeatherDisplay:10.37,2013-06-13 19:36:00,
2013-06-13 15:41:00,85.4,76.2,29.98,SSW,202,1.0,8.0,74,0.00,OVC,OVC,0.00,238.0,WeatherDisplay:10.37,2013-06-13 19:41:00,
2013-06-13 15:46:00,85.4,76.2,29.98,SSW,202,1.0,8.0,74,0.00,OVC,OVC,0.00,238.0,WeatherDisplay:10.37,2013-06-13 19:46:00,
2013-06-13 15:51:00,85.4,76.2,29.98,SSW,202,1.0,8.0,74,0.00,OVC,OVC,0.00,238.0,WeatherDisplay:10.37,2013-06-13 19:51:00,
2013-06-13 15:56:00,85.4,76.2,29.98,SSW,202,1.0,8.0,74,0.00,OVC,OVC,0.00,238.0,WeatherDisplay:10.37,2013-06-13 19:56:00,
2013-06-13 16:01:00,85.4,75.3,29.99,SSW,202,0.0,8.0,72,0.00,OVC,OVC,0.00,233.0,WeatherDisplay:10.37,2013-06-13 20:01:00,
2013-06-13 16:06:00,85.4,75.3,29.99,SSW,202,0.0,5.0,72,0.00,OVC,OVC,0.00,233.0,WeatherDisplay:10.37,2013-06-13 20:06:00,
2013-06-13 16:11:00,85.4,75.3,29.99,SSW,202,0.0,5.0,72,0.00,OVC,OVC,0.00,233.0,WeatherDisplay:10.37,2013-06-13 20:11:00,
2013-06-13 16:16:00,85.4,75.3,29.99,SSW,202,0.0,5.0,72,0.00,OVC,OVC,0.00,233.0,WeatherDisplay:10.37,2013-06-13 20:16:00,
2013-06-13 16:21:00,85.4,75.3,29.99,SSW,202,0.0,5.0,72,0.00,OVC,OVC,0.00,233.0,WeatherDisplay:10.37,2013-06-13 20:21:00,
2013-06-13 16:26:00,85.4,75.3,29.99,SSW,202,0.0,5.0,72,0.00,OVC,OVC,0.00,233.0,WeatherDisplay:10.37,2013-06-13 20:26:00,
2013-06-13 16:31:00,86.9,76.8,29.97,SSW,202,1.0,7.0,72,0.00,OVC,OVC,0.00,358.0,WeatherDisplay:10.37,2013-06-13 20:31:00,
2013-06-13 16:36:00,86.9,76.8,29.97,SSW,202,1.0,7.0,72,0.00,OVC,OVC,0.00,358.0,WeatherDisplay:10.37,2013-06-13 20:36:00,
2013-06-13 16:41:00,86.9,76.8,29.97,SSW,202,1.0,7.0,72,0.00,OVC,OVC,0.00,358.0,WeatherDisplay:10.37,2013-06-13 20:41:00,
2013-06-13 16:46:00,86.9,76.8,29.97,SSW,202,1.0,7.0,72,0.00,OVC,OVC,0.00,358.0,WeatherDisplay:10.37,2013-06-13 20:46:00,
2013-06-13 16:51:00,86.9,76.8,29.97,SSW,202,1.0,7.0,72,0.00,OVC,OVC,0.00,358.0,WeatherDisplay:10.37,2013-06-13 20:51:00,
2013-06-13 16:56:00,86.9,76.8,29.97,SSW,202,1.0,7.0,72,0.00,OVC,OVC,0.00,358.0,WeatherDisplay:10.37,2013-06-13 20:56:00,
2013-06-13 17:01:00,88.6,76.7,29.96,SSW,202,0.0,7.0,68,0.00,OVC,OVC,0.00,341.0,WeatherDisplay:10.37,2013-06-13 21:01:00,
2013-06-13 17:06:00,88.6,76.7,29.96,SSW,202,0.0,3.0,68,0.00,OVC,OVC,0.00,341.0,WeatherDisplay:10.37,2013-06-13 21:06:00,
2013-06-13 17:11:00,88.6,76.7,29.96,SSW,202,0.0,3.0,68,0.00,OVC,OVC,0.00,341.0,WeatherDisplay:10.37,2013-06-13 21:11:00,
2013-06-13 17:16:00,88.6,76.7,29.96,SSW,202,0.0,3.0,68,0.00,OVC,OVC,0.00,341.0,WeatherDisplay:10.37,2013-06-13 21:16:00,
2013-06-13 17:21:00,88.6,76.7,29.96,SSW,202,0.0,3.0,68,0.00,OVC,OVC,0.00,341.0,WeatherDisplay:10.37,2013-06-13 21:21:00,
2013-06-13 17:26:00,88.6,76.7,29.96,SSW,202,0.0,3.0,68,0.00,OVC,OVC,0.00,341.0,WeatherDisplay:10.37,2013-06-13 21:26:00,
2013-06-13 17:31:00,89.0,75.2,29.95,SSW,202,0.0,7.0,64,0.00,OVC,OVC,0.00,390.0,WeatherDisplay:10.37,2013-06-13 21:31:00,
2013-06-13 17:36:00,89.0,75.2,29.95,SSW,202,0.0,7.0,64,0.00,OVC,OVC,0.00,390.0,WeatherDisplay:10.37,2013-06-13 21:36:00,
2013-06-13 17:41:00,89.0,75.2,29.95,SSW,202,0.0,7.0,64,0.00,OVC,OVC,0.00,390.0,WeatherDisplay:10.37,2013-06-13 21:41:00,
2013-06-13 17:46:00,89.0,75.2,29.95,SSW,202,0.0,7.0,64,0.00,OVC,OVC,0.00,390.0,WeatherDisplay:10.37,2013-06-13 21:46:00,
2013-06-13 17:51:00,89.0,75.2,29.95,SSW,202,0.0,7.0,64,0.00,OVC,OVC,0.00,390.0,WeatherDisplay:10.37,2013-06-13 21:51:00,
2013-06-13 17:56:00,89.0,75.2,29.95,SSW,202,0.0,7.0,64,0.00,OVC,OVC,0.00,390.0,WeatherDisplay:10.37,2013-06-13 21:56:00,
2013-06-13 18:01:00,88.7,74.5,29.95,SSW,202,0.0,7.0,63,0.00,OVC,OVC,0.00,270.0,WeatherDisplay:10.37,2013-06-13 22:01:00,
2013-06-13 18:06:00,88.7,74.5,29.95,SSW,202,0.0,3.0,63,0.00,OVC,OVC,0.00,270.0,WeatherDisplay:10.37,2013-06-13 22:06:00,
2013-06-13 18:11:00,88.7,74.5,29.95,SSW,202,0.0,3.0,63,0.00,OVC,OVC,0.00,270.0,WeatherDisplay:10.37,2013-06-13 22:11:00,
2013-06-13 18:16:00,88.7,74.5,29.95,SSW,202,0.0,3.0,63,0.00,OVC,OVC,0.00,270.0,WeatherDisplay:10.37,2013-06-13 22:16:00,
2013-06-13 18:21:00,88.7,74.5,29.95,SSW,202,0.0,3.0,63,0.00,OVC,OVC,0.00,270.0,WeatherDisplay:10.37,2013-06-13 22:21:00,
2013-06-13 18:26:00,88.7,74.5,29.95,SSW,202,0.0,3.0,63,0.00,OVC,OVC,0.00,270.0,WeatherDisplay:10.37,2013-06-13 22:26:00,
2013-06-13 18:31:00,87.3,74.5,29.95,SSW,202,0.0,5.0,66,0.00,OVC,OVC,0.00,216.0,WeatherDisplay:10.37,2013-06-13 22:31:00,
2013-06-13 18:36:00,87.3,74.5,29.95,SSW,202,0.0,5.0,66,0.00,OVC,OVC,0.00,216.0,WeatherDisplay:10.37,2013-06-13 22:36:00,
2013-06-13 18:41:00,87.3,74.5,29.95,SSW,202,0.0,5.0,66,0.00,OVC,OVC,0.00,216.0,WeatherDisplay:10.37,2013-06-13 22:41:00,
2013-06-13 18:46:00,87.3,74.5,29.95,SSW,202,0.0,5.0,66,0.00,OVC,OVC,0.00,216.0,WeatherDisplay:10.37,2013-06-13 22:46:00,
2013-06-13 18:51:00,87.3,74.5,29.95,SSW,202,0.0,5.0,66,0.00,OVC,OVC,0.00,216.0,WeatherDisplay:10.37,2013-06-13 22:51:00,
2013-06-13 18:56:00,87.3,74.5,29.95,SSW,202,0.0,5.0,66,0.00,OVC,OVC,0.00,216.0,WeatherDisplay:10.37,2013-06-13 22:56:00,
2013-06-13 19:01:00,86.0,75.1,29.95,SSW,202,0.0,5.0,70,0.00,CLR,CLR,0.00,116.0,WeatherDisplay:10.37,2013-06-13 23:01:00,
2013-06-13 19:06:00,86.0,75.1,29.95,SSW,202,0.0,4.0,70,0.00,CLR,CLR,0.00,116.0,WeatherDisplay:10.37,2013-06-13 23:06:00,
2013-06-13 19:11:00,86.0,75.1,29.95,SSW,202,0.0,4.0,70,0.00,CLR,CLR,0.00,116.0,WeatherDisplay:10.37,2013-06-13 23:11:00,
2013-06-13 19:16:00,86.0,75.1,29.95,SSW,202,0.0,4.0,70,0.00,CLR,CLR,0.00,116.0,WeatherDisplay:10.37,2013-06-13 23:16:00,
2013-06-13 19:21:00,86.0,75.1,29.95,SSW,202,0.0,4.0,70,0.00,CLR,CLR,0.00,116.0,WeatherDisplay:10.37,2013-06-13 23:21:00,
2013-06-13 19:26:00,86.0,75.1,29.95,SSW,202,0.0,4.0,70,0.00,CLR,CLR,0.00,116.0,WeatherDisplay:10.37,2013-06-13 23:26:00,
2013-06-13 19:31:00,83.8,75.0,29.94,SSW,197,1.0,7.0,75,0.00,CLR,CLR,0.00,49.0,WeatherDisplay:10.37,2013-06-13 23:31:00,
2013-06-13 19:36:00,83.8,75.0,29.94,SSE,164,1.0,7.0,75,0.00,CLR,CLR,0.00,49.0,WeatherDisplay:10.37,2013-06-13 23:36:00,
2013-06-13 19:41:00,83.8,75.0,29.94,SE,135,1.0,7.0,75,0.00,CLR,CLR,0.00,49.0,WeatherDisplay:10.37,2013-06-13 23:41:00,
2013-06-13 19:46:00,83.8,75.0,29.94,SE,135,1.0,7.0,75,0.00,CLR,CLR,0.00,49.0,WeatherDisplay:10.37,2013-06-13 23:46:00,
2013-06-13 19:51:00,83.8,75.0,29.94,SE,135,1.0,7.0,75,0.00,CLR,CLR,0.00,49.0,WeatherDisplay:10.37,2013-06-13 23:51:00,
2013-06-13 19:56:00,83.8,75.0,29.94,SE,135,1.0,7.0,75,0.00,CLR,CLR,0.00,49.0,WeatherDisplay:10.37,2013-06-13 23:56:00,
2013-06-13 20:01:00,83.0,75.8,29.95,SE,135,0.0,7.0,79,0.00,CLR,CLR,0.00,23.0,WeatherDisplay:10.37,2013-06-14 00:01:00,
2013-06-13 20:06:00,83.0,75.8,29.95,SE,135,0.0,4.0,79,0.00,CLR,CLR,0.00,23.0,WeatherDisplay:10.37,2013-06-14 00:06:00,
2013-06-13 20:11:00,83.0,75.8,29.95,SE,135,0.0,4.0,79,0.00,CLR,CLR,0.00,23.0,WeatherDisplay:10.37,2013-06-14 00:11:00,
2013-06-13 20:16:00,83.0,75.8,29.95,SE,135,0.0,4.0,79,0.00,CLR,CLR,0.00,23.0,WeatherDisplay:10.37,2013-06-14 00:16:00,
2013-06-13 20:21:00,83.0,75.8,29.95,SE,135,0.0,4.0,79,0.00,CLR,CLR,0.00,23.0,WeatherDisplay:10.37,2013-06-14 00:21:00,
2013-06-13 20:26:00,83.0,75.8,29.95,SE,135,0.0,4.0,79,0.00,CLR,CLR,0.00,23.0,WeatherDisplay:10.37,2013-06-14 00:26:00,
2013-06-13 20:31:00,81.5,74.4,29.95,SE,135,0.0,4.0,79,0.00,CLR,CLR,0.00,3.0,WeatherDisplay:10.37,2013-06-14 00:31:00,
2013-06-13 20:36:00,81.5,74.4,29.95,SE,135,0.0,4.0,79,0.00,CLR,CLR,0.00,3.0,WeatherDisplay:10.37,2013-06-14 00:36:00,
2013-06-13 20:41:00,81.5,74.4,29.95,SE,135,0.0,4.0,79,0.00,CLR,CLR,0.00,3.0,WeatherDisplay:10.37,2013-06-14 00:41:00,
2013-06-13 20:46:00,81.5,74.4,29.95,SE,135,0.0,4.0,79,0.00,CLR,CLR,0.00,3.0,WeatherDisplay:10.37,2013-06-14 00:46:00,
2013-06-13 20:51:00,81.5,74.4,29.95,SE,135,0.0,4.0,79,0.00,CLR,CLR,0.00,3.0,WeatherDisplay:10.37,2013-06-14 00:51:00,
2013-06-13 20:56:00,81.5,74.4,29.95,SE,135,0.0,4.0,79,0.00,CLR,CLR,0.00,3.0,WeatherDisplay:10.37,2013-06-14 00:56:00,
2013-06-13 21:01:00,80.2,73.1,29.96,SE,135,0.0,4.0,79,0.00,CLR,CLR,0.00,0.0,WeatherDisplay:10.37,2013-06-14 01:01:00,
2013-06-13 21:06:00,80.2,73.1,29.96,SE,135,0.0,4.0,79,0.00,CLR,CLR,0.00,0.0,WeatherDisplay:10.37,2013-06-14 01:06:00,
2013-06-13 21:11:00,80.2,73.1,29.96,SE,135,0.0,4.0,79,0.00,CLR,CLR,0.00,0.0,WeatherDisplay:10.37,2013-06-14 01:11:00,
2013-06-13 21:16:00,80.2,73.1,29.96,SE,135,0.0,4.0,79,0.00,CLR,CLR,0.00,0.0,WeatherDisplay:10.37,2013-06-14 01:16:00,
2013-06-13 21:21:00,80.2,73.1,29.96,SE,135,0.0,4.0,79,0.00,CLR,CLR,0.00,0.0,WeatherDisplay:10.37,2013-06-14 01:21:00,
2013-06-13 21:26:00,80.2,73.1,29.96,SE,135,0.0,4.0,79,0.00,CLR,CLR,0.00,0.0,WeatherDisplay:10.37,2013-06-14 01:26:00,
2013-06-13 21:31:00,78.9,72.2,29.97,SE,135,0.0,4.0,80,0.00,CLR,CLR,0.00,0.0,WeatherDisplay:10.37,2013-06-14 01:31:00,
2013-06-13 21:36:00,78.9,72.2,29.97,SE,135,0.0,3.0,80,0.00,CLR,CLR,0.00,0.0,WeatherDisplay:10.37,2013-06-14 01:36:00,
2013-06-13 21:41:00,78.9,72.2,29.97,SE,135,0.0,3.0,80,0.00,CLR,CLR,0.00,0.0,WeatherDisplay:10.37,2013-06-14 01:41:00,
2013-06-13 21:46:00,78.9,72.2,29.97,SE,135,0.0,3.0,80,0.00,CLR,CLR,0.00,0.0,WeatherDisplay:10.37,2013-06-14 01:46:00,
2013-06-13 21:51:00,78.9,72.2,29.97,SE,135,0.0,3.0,80,0.00,CLR,CLR,0.00,0.0,WeatherDisplay:10.37,2013-06-14 01:51:00,
2013-06-13 21:56:00,78.9,72.2,29.97,SE,135,0.0,3.0,80,0.00,CLR,CLR,0.00,0.0,WeatherDisplay:10.37,2013-06-14 01:56:00,
2013-06-13 22:01:00,78.1,72.2,29.97,SE,135,0.0,4.0,82,0.00,CLR,CLR,0.00,0.0,WeatherDisplay:10.37,2013-06-14 02:01:00,
2013-06-13 22:06:00,78.1,72.2,29.97,SE,135,0.0,4.0,82,0.00,CLR,CLR,0.00,0.0,WeatherDisplay:10.37,2013-06-14 02:06:00,
2013-06-13 22:11:00,78.1,72.2,29.97,SE,135,0.0,4.0,82,0.00,CLR,CLR,0.00,0.0,WeatherDisplay:10.37,2013-06-14 02:11:00,
2013-06-13 22:16:00,78.1,72.2,29.97,SE,135,0.0,4.0,82,0.00,CLR,CLR,0.00,0.0,WeatherDisplay:10.37,2013-06-14 02:16:00,
2013-06-13 22:21:00,78.1,72.2,29.97,SE,135,0.0,4.0,82,0.00,CLR,CLR,0.00,0.0,WeatherDisplay:10.37,2013-06-14 02:21:00,
2013-06-13 22:26:00,78.1,72.2,29.97,SE,135,0.0,4.0,82,0.00,CLR,CLR,0.00,0.0,WeatherDisplay:10.37,2013-06-14 02:26:00,
2013-06-13 22:31:00,77.5,71.6,29.97,SE,135,0.0,4.0,82,0.00,CLR,CLR,0.00,0.0,WeatherDisplay:10.37,2013-06-14 02:31:00,
2013-06-13 22:36:00,77.5,71.6,29.97,SE,135,0.0,4.0,82,0.00,CLR,CLR,0.00,0.0,WeatherDisplay:10.37,2013-06-14 02:36:00,
2013-06-13 22:41:00,77.5,71.6,29.97,SE,135,0.0,4.0,82,0.00,CLR,CLR,0.00,0.0,WeatherDisplay:10.37,2013-06-14 02:41:00,
2013-06-13 22:46:00,77.5,71.6,29.97,SE,135,0.0,4.0,82,0.00,CLR,CLR,0.00,0.0,WeatherDisplay:10.37,2013-06-14 02:46:00,
2013-06-13 22:51:00,77.5,71.6,29.97,SE,135,0.0,4.0,82,0.00,CLR,CLR,0.00,0.0,WeatherDisplay:10.37,2013-06-14 02:51:00,
2013-06-13 22:56:00,77.5,71.6,29.97,SE,135,0.0,4.0,82,0.00,CLR,CLR,0.00,0.0,WeatherDisplay:10.37,2013-06-14 02:56:00,
2013-06-13 23:01:00,77.0,70.7,29.98,SE,135,0.0,4.0,81,0.00,CLR,CLR,0.00,0.0,WeatherDisplay:10.37,2013-06-14 03:01:00,
2013-06-13 23:06:00,77.0,70.7,29.98,SE,135,0.0,4.0,81,0.00,CLR,CLR,0.00,0.0,WeatherDisplay:10.37,2013-06-14 03:06:00,
2013-06-13 23:11:00,77.0,70.7,29.98,SE,135,0.0,4.0,81,0.00,CLR,CLR,0.00,0.0,WeatherDisplay:10.37,2013-06-14 03:11:00,
2013-06-13 23:16:00,77.0,70.7,29.98,SE,135,0.0,4.0,81,0.00,CLR,CLR,0.00,0.0,WeatherDisplay:10.37,2013-06-14 03:16:00,
2013-06-13 23:21:00,77.0,70.7,29.98,SE,135,0.0,4.0,81,0.00,CLR,CLR,0.00,0.0,WeatherDisplay:10.37,2013-06-14 03:21:00,
2013-06-13 23:26:00,77.0,70.7,29.98,SE,135,0.0,4.0,81,0.00,CLR,CLR,0.00,0.0,WeatherDisplay:10.37,2013-06-14 03:26:00,
2013-06-13 23:31:00,76.6,70.7,29.97,SE,135,0.0,4.0,82,0.00,CLR,CLR,0.00,0.0,WeatherDisplay:10.37,2013-06-14 03:31:00,
2013-06-13 23:36:00,76.6,70.7,29.97,SE,135,0.0,3.0,82,0.00,CLR,CLR,0.00,0.0,WeatherDisplay:10.37,2013-06-14 03:36:00,
2013-06-13 23:41:00,76.6,70.7,29.97,SE,135,0.0,3.0,82,0.00,CLR,CLR,0.00,0.0,WeatherDisplay:10.37,2013-06-14 03:41:00,
2013-06-13 23:46:00,76.6,70.7,29.97,SE,135,0.0,3.0,82,0.00,CLR,CLR,0.00,0.0,WeatherDisplay:10.37,2013-06-14 03:46:00,
2013-06-13 23:51:00,76.6,70.7,29.97,SE,135,0.0,3.0,82,0.00,CLR,CLR,0.00,0.0,WeatherDisplay:10.37,2013-06-14 03:51:00,
2013-06-13 23:56:00,76.6,70.7,29.97,SE,135,0.0,3.0,82,0.00,CLR,CLR,0.00,0.0,WeatherDisplay:10.37,2013-06-14 03:56:00,